Latest Coastal Weather Observations for Laverton

IDV60701

Issued at 5:45 am EST Sunday 24 August 2014 (issued every 10 minutes, with the page automatically refreshed every 10 minutes)

About coastal observations | Map of coastal stations | Coastal observations for VIC | Marine services | Other Formats
Station Details ID: 087031 Name: LAVERTON RAAF Lat: -37.86 Lon: 144.76 Height: 20.1 m
Data from the previous 72 hours. | See also: Recent months at Laverton
Date/Time
EST
Temp

°C
Wind Pressure Rain
since 9am
mm
Weather Cloud Vis
km
Sea
Height
m
Swell
Dir
 
Speed
knots
Gust
knots
hPa Trend Height
m
Period
s
Dir
24/05:30am 10.3 NW 5 7 1025.0 - 2.4 - Partly cloudy 10 - - - -
24/05:00am 10.2 W 5 6 1024.8 - 2.4 - Partly cloudy 10 - - - -
24/04:30am 10.3 W 4 5 1024.6 - 2.0 - Cloudy 10 - - - -
24/04:00am 10.6 CALM 0 0 1024.4 - 2.0 - Partly cloudy 9 - - - -
24/03:30am 10.9 WSW 1 3 1024.5 - 1.8 - Partly cloudy 10 - - - -
24/03:00am 11.3 WSW 4 6 1024.4 - 1.2 Rain Cloudy 10 - - - -
24/02:30am 11.2 SE 4 6 1024.4 - 0.8 - Partly cloudy 10 - - - -
24/02:00am 11.6 SSW 6 10 1024.5 - 0.4 - Partly cloudy 10 - - - -
24/01:30am 12.3 S 6 8 1024.2 - 0.0 - Cloudy 10 - - - -
24/01:00am 14.8 N 7 11 1024.3 - 0.0 - Partly cloudy 10 - - - -
24/12:30am 13.8 NW 7 8 1024.5 - 0.0 - Partly cloudy 10 - - - -
24/12:00am 14.2 NW 10 14 1024.6 - 0.0 - Cloudy 10 - - - -
 
Date/Time
EST
Temp

°C
Wind Pressure Rain
since 9am
mm
Weather Cloud Vis
km
Sea
Height
m
Swell
Dir
 
Speed
knots
Gust
knots
hPa Trend Height
m
Period
s
Dir
23/11:30pm 13.5 NW 7 9 1024.6 - 0.0 - Partly cloudy 10 - - - -
23/11:00pm 12.6 WNW 2 4 1024.5 - 0.0 - Partly cloudy 10 - - - -
23/10:30pm 14.8 NW 7 12 1024.7 - 0.0 - Partly cloudy 10 - - - -
23/10:00pm 14.7 NNW 5 11 1024.5 - 0.0 - Partly cloudy 10 - - - -
23/09:30pm 14.7 N 2 6 1024.2 - 0.0 - Partly cloudy 10 - - - -
23/09:00pm 15.5 N 7 10 1024.3 - 0.0 - Mostly cloudy 10 - - - -
23/08:30pm 15.9 N 8 12 1023.7 - 0.0 - - 10 - - - -
23/08:00pm 16.2 NE 11 15 1023.5 - 0.0 - Partly cloudy 10 - - - -
23/07:30pm 16.3 NE 11 16 1023.6 - 0.0 - - 10 - - - -
23/07:00pm 16.3 NE 9 13 1024.1 - 0.0 - Partly cloudy 10 - - - -
23/06:30pm 16.2 NNE 9 11 1024.2 - 0.0 - - 10 - - - -
23/06:00pm 16.7 NNE 11 15 1024.2 - 0.0 - - 10 - - - -
23/05:30pm 17.4 NNE 13 18 1024.1 - 0.0 - Partly cloudy 10 - - - -
23/05:00pm 17.9 NNE 11 18 1024.1 - 0.0 - Partly cloudy 10 - - - -
23/04:30pm 18.5 N 12 20 1024.0 - 0.0 - - 10 - - - -
23/04:00pm 19.1 N 13 20 1023.8 - 0.0 - - 10 - - - -
23/03:30pm 19.6 NNE 13 21 1024.0 - 0.0 - - 10 - - - -
23/03:00pm 18.2 NNE 14 21 1024.3 - 0.0 - Partly cloudy 10 - - - -
23/02:30pm 18.6 N 16 22 1024.5 - 0.0 - Partly cloudy 10 - - - -
23/02:00pm 19.3 NNE 14 22 1024.7 - 0.0 - - 10 - - - -
23/01:30pm 18.9 NNE 15 21 1025.0 - 0.0 - Partly cloudy 10 - - - -
23/01:00pm 18.5 NNE 16 21 1025.5 - 0.0 - - 10 - - - -
23/12:30pm 18.1 NNE 15 20 1026.1 - 0.0 - - 10 - - - -
23/12:00pm 17.3 NNE 16 23 1026.6 - 0.0 - - 10 - - - -
23/11:30am 16.9 NNE 15 21 1027.2 - 0.0 - - 10 - - - -
23/11:00am 16.6 N 14 22 1027.8 - 0.0 - - 10 - - - -
23/10:30am 15.5 N 15 22 1028.1 - 0.0 - - 10 - - - -
23/10:04am 15.1 NNE 15 25 1028.2 - 0.0 - - 10 - - - -
23/10:00am 15.1 NNE 14 24 1028.3 - 0.0 - - 10 - - - -
23/09:31am 14.3 NNE 15 25 1028.4 - 0.0 - - 10 - - - -
23/09:30am 14.3 NNE 16 25 1028.4 - 0.0 - - 10 - - - -
23/09:00am 13.3 NNE 11 18 1028.6 - 0.0 - - 10 - - - -
23/08:30am 11.9 N 8 12 1028.8 - 0.0 - - 10 - - - -
23/08:00am 10.6 N 6 9 1028.6 - 0.0 - - 10 - - - -
23/07:30am 7.4 NE 7 8 1028.3 - 0.0 - - 10 - - - -
23/07:00am 6.2 NE 7 8 1028.1 - 0.0 - - 10 - - - -
23/06:30am 6.4 NNE 4 5 1027.9 - 0.0 - - 10 - - - -
23/06:00am 5.5 NE 5 6 1027.7 - 0.0 - Partly cloudy 10 - - - -
23/05:30am 4.4 NNE 4 4 1027.7 - 0.0 - - 10 - - - -
23/05:00am 5.4 NNE 4 5 1027.4 - 0.0 - - 10 - - - -
23/04:30am 4.4 NNE 3 3 1027.3 - 0.0 - - 10 - - - -
23/04:00am 5.0 NNE 3 4 1027.3 - 0.0 - - 10 - - - -
23/03:30am 5.3 NNE 4 5 1027.4 - 0.0 - - 10 - - - -
23/03:00am 5.5 NNE 4 4 1027.5 - 0.0 - - 10 - - - -
23/02:30am 6.2 NNE 4 5 1027.8 - 0.0 - - 10 - - - -
23/02:00am 6.2 NNE 4 5 1028.0 - 0.0 - - 10 - - - -
23/01:30am 6.8 N 4 5 1028.1 - 0.0 - - 10 - - - -
23/01:00am 7.4 N 5 6 1028.2 - 0.0 - - 10 - - - -
23/12:30am 6.6 N 3 4 1028.1 - 0.0 - - 10 - - - -
23/12:00am 7.4 N 4 5 1028.0 - 0.0 - - 10 - - - -
 
Date/Time
EST
Temp

°C
Wind Pressure Rain
since 9am
mm
Weather Cloud Vis
km
Sea
Height
m
Swell
Dir
 
Speed
knots
Gust
knots
hPa Trend Height
m
Period
s
Dir
22/11:30pm 5.7 N 4 5 1028.3 - 0.0 - - 10 - - - -
22/11:00pm 7.8 N 4 5 1028.5 - 0.0 - - 10 - - - -
22/10:30pm 8.0 N 5 6 1028.4 - 0.0 - - 10 - - - -
22/10:00pm 8.0 N 5 6 1028.5 - 0.0 - - 10 - - - -
22/09:30pm 8.5 CALM 0 5 1028.6 - 0.0 - - 10 - - - -
22/09:00pm 9.2 N 4 5 1028.7 - 0.0 - - 10 - - - -
22/08:30pm 11.1 CALM 0 0 1028.7 - 0.0 - - 10 - - - -
22/08:00pm 11.5 E 3 3 1028.5 - 0.0 - - 10 - - - -
22/07:30pm 13.1 E 4 5 1028.4 - 0.0 - - 10 - - - -
22/07:00pm 13.6 E 4 5 1028.3 - 0.0 - - 10 - - - -
22/06:30pm 14.3 ENE 4 6 1028.1 - 0.0 - - 10 - - - -
22/06:00pm 14.5 E 6 9 1027.8 - 0.0 - - 10 - - - -
22/05:30pm 15.6 ESE 5 7 1027.7 - 0.0 - - 10 - - - -
22/05:00pm 16.3 ESE 6 8 1027.6 - 0.0 - - 10 - - - -
22/04:30pm 17.0 ESE 6 8 1027.5 - 0.0 - - 10 - - - -
22/04:00pm 17.6 E 5 7 1027.3 - 0.0 - Partly cloudy 10 - - - -
22/03:30pm 17.9 ESE 7 11 1027.4 - 0.0 - - 10 - - - -
22/03:00pm 19.6 NNE 7 13 1027.5 - 0.0 - Cloudy 10 - - - -
22/02:30pm 19.6 E 7 9 1027.8 - 0.0 - Partly cloudy 10 - - - -
22/02:00pm 18.8 NE 6 8 1028.1 - 0.0 - Partly cloudy 10 - - - -
22/01:30pm 18.3 NE 6 9 1028.4 - 0.0 - - 10 - - - -
22/01:00pm 19.4 NE 5 11 1028.7 - 0.0 - - 10 - - - -
22/12:30pm 18.8 NNE 7 11 1029.2 - 0.0 - - 10 - - - -
22/12:00pm 18.6 NE 6 10 1029.7 - 0.0 - - 10 - - - -
22/11:30am 17.8 NNE 7 11 1030.2 - 0.0 - - 10 - - - -
22/11:00am 17.3 NNE 8 12 1030.6 - 0.0 - - 10 - - - -
22/10:30am 16.1 NNE 9 13 1030.8 - 0.0 - - 10 - - - -
22/10:00am 14.8 NE 7 10 1030.9 - 0.0 - - 10 - - - -
22/09:30am 13.2 NE 6 9 1031.0 - 0.0 - Partly cloudy 10 - - - -
22/09:00am 12.2 NE 6 8 1031.1 - 0.0 - Cloudy 10 - - - -
22/08:30am 9.8 NE 4 6 1031.2 - 0.0 - Cloudy 10 - - - -
22/08:00am 6.7 NE 5 7 1031.0 - 0.0 - Partly cloudy 10 - - - -
22/07:30am 4.8 N 3 3 1030.7 - 0.0 - Partly cloudy 10 - - - -
22/07:00am 4.7 N 1 4 1030.4 - 0.0 - Partly cloudy 10 - - - -
22/06:30am 5.2 N 4 5 1030.1 - 0.0 - Partly cloudy 10 - - - -
22/06:00am 5.3 N 4 5 1029.9 - 0.0 - - 10 - - - -
22/05:30am 5.9 N 6 7 1029.8 - 0.0 - - 10 - - - -
22/05:00am 6.2 NNE 7 8 1029.7 - 0.0 - - 10 - - - -
22/04:30am 6.0 NE 6 7 1029.5 - 0.0 - - 10 - - - -
22/04:00am 5.9 NE 6 6 1029.4 - 0.0 - - 10 - - - -
22/03:30am 4.1 NNE 4 5 1029.3 - 0.0 - - 10 - - - -
22/03:00am 4.8 NNE 3 4 1029.4 - 0.0 - - 10 - - - -
22/02:30am 5.1 NNE 4 5 1029.6 - 0.0 - - 10 - - - -
22/02:00am 5.6 NE 3 4 1029.6 - 0.0 - - 10 - - - -
22/01:30am 6.7 NNE 3 5 1029.6 - 0.0 - - 10 - - - -
22/01:00am 7.7 NE 4 6 1029.6 - 0.0 - - 10 - - - -
22/12:30am 7.4 NE 5 6 1029.5 - 0.0 - - 10 - - - -
22/12:00am 6.7 NE 5 6 1029.6 - 0.0 - - 10 - - - -
 
Date/Time
EST
Temp

°C
Wind Pressure Rain
since 9am
mm
Weather Cloud Vis
km
Sea
Height
m
Swell
Dir
 
Speed
knots
Gust
knots
hPa Trend Height
m
Period
s
Dir
21/11:30pm 8.4 N 4 4 1029.4 - 0.0 - - 10 - - - -
21/11:00pm 8.8 N 4 5 1029.4 - 0.0 - - 10 - - - -
21/10:30pm 10.3 N 5 6 1029.4 - 0.0 - - 10 - - - -
21/10:00pm 9.3 ENE 5 6 1029.4 - 0.0 - - 10 - - - -
21/09:30pm 9.5 NE 4 5 1029.3 - 0.0 - - 10 - - - -
21/09:00pm 11.4 N 7 10 1029.0 - 0.0 - - 10 - - - -
21/08:30pm 11.1 N 6 9 1028.8 - 0.0 - - 10 - - - -
21/08:00pm 10.0 W 1 4 1028.6 - 0.0 - - 10 - - - -
21/07:30pm 10.5 CALM 0 3 1028.5 - 0.0 - - 10 - - - -
21/07:00pm 11.3 WSW 3 4 1028.3 - 0.0 - Partly cloudy 10 - - - -
21/06:30pm 11.6 ESE 3 4 1028.0 - 0.0 - Partly cloudy 10 - - - -
21/06:00pm 12.5 ESE 4 5 1027.8 - 0.0 - Mostly cloudy 10 - - - -
21/05:30pm 12.9 ESE 4 6 1027.5 - 0.0 - Partly cloudy 10 - - - -
21/05:00pm 13.2 ESE 5 7 1027.2 - 0.0 - Partly cloudy 10 - - - -
21/04:30pm 13.4 ESE 5 8 1026.9 - 0.0 - Cloudy 10 - - - -
21/04:00pm 13.7 ESE 6 8 1026.9 - 0.0 - Partly cloudy 10 - - - -
21/03:30pm 13.9 ESE 5 8 1026.9 - 0.0 - Cloudy 10 - - - -
21/03:00pm 13.6 SE 7 8 1027.0 - 0.0 - Mostly cloudy 10 - - - -
21/02:30pm 13.8 SE 7 10 1027.0 - 0.0 - Partly cloudy 10 - - - -
21/02:00pm 14.2 SE 6 8 1027.0 - 0.0 - Partly cloudy 10 - - - -
21/01:30pm 13.9 ESE 7 9 1027.2 - 0.0 - Partly cloudy 10 - - - -
21/01:00pm 13.3 ESE 6 9 1027.6 - 0.0 - Partly cloudy 10 - - - -
21/12:30pm 13.1 ESE 6 8 1028.1 - 0.0 - Partly cloudy 10 - - - -
21/12:00pm 14.3 N 4 9 1028.5 - 0.0 - Partly cloudy 10 - - - -
21/11:30am 12.9 SE 2 4 1029.0 - 0.0 - Cloudy 10 - - - -
21/11:00am 12.8 NE 3 5 1029.2 - 0.0 - Partly cloudy 10 - - - -
21/10:30am 11.4 WNW 4 6 1029.5 - 0.0 - Partly cloudy 10 - - - -
21/10:00am 10.5 NW 5 6 1029.6 - 0.0 - Cloudy 10 - - - -
21/09:30am 9.9 WNW 4 6 1029.6 - 0.0 - Partly cloudy 10 - - - -
21/09:00am 8.9 WNW 5 7 1029.5 - 0.0 - Partly cloudy 10 - - - -
21/08:30am 6.9 NW 5 6 1029.5 - 0.0 - Partly cloudy 10 - - - -
21/08:00am 5.8 WNW 5 7 1029.1 - 0.0 - Partly cloudy 10 - - - -
21/07:30am 5.5 NW 6 7 1028.8 - 0.0 - - 10 - - - -
21/07:00am 6.9 SSW 4 7 1028.4 - 0.0 - Partly cloudy 10 - - - -
21/06:30am 7.1 WNW 4 4 1028.4 - 0.0 - Cloudy 10 - - - -
21/06:00am 7.3 W 3 4 1028.2 - 0.0 - Cloudy 10 - - - -

Other Formats:

Comma delimited format used in spreadsheet applications
http://www.bom.gov.au/fwo/IDV60701/IDV60701.94865.axf

JavaScript Object Notation format (JSON) in row-major order
http://www.bom.gov.au/fwo/IDV60701/IDV60701.94865.json